Time;durP1;ratioP1;P1;durP2;ratioP2;P2;SDS_P1;SDS_P2;PMS_P1;PMS_P2;Temp;Humidity;BMP_temperature;BMP_pressure;BME280_temperature;BME280_humidity;BME280_pressure;Samples;Min_cycle;Max_cycle;Signal;HPM_P1;HPM_P2
2023/03/12 00:02:12;;;;;;;6.40;4.43;;;;;;;;;;5102634;28;20373;-93
2023/03/12 00:04:39;;;;;;;7.80;5.05;;;;;;;;;;5091482;28;20056;-95
2023/03/12 00:07:07;;;;;;;6.47;4.20;;;;;;;;;;5092494;28;20055;-96
2023/03/12 00:12:36;;;;;;;7.97;4.40;;;;;;;;;;5101963;28;20479;-93
2023/03/12 00:15:03;;;;;;;7.75;4.68;;;;;;;;;;5101825;28;20398;-92
2023/03/12 00:17:29;;;;;;;8.07;4.20;;;;;;;;;;5101944;28;20099;-92
2023/03/12 00:19:55;;;;;;;5.40;3.70;;;;;;;;;;5103578;28;20024;-91
2023/03/12 00:22:21;;;;;;;6.30;4.00;;;;;;;;;;5102765;28;20098;-92
2023/03/12 00:24:52;;;;;;;5.93;3.53;;;;;;;;;;5092356;28;20090;-91
2023/03/12 00:27:18;;;;;;;8.43;4.43;;;;;;;;;;5082948;28;20039;-93
2023/03/12 00:29:44;;;;;;;7.93;4.50;;;;;;;;;;5101306;28;20048;-92
2023/03/12 00:32:10;;;;;;;8.20;4.45;;;;;;;;;;5080689;28;20857;-92
2023/03/12 00:34:36;;;;;;;8.52;3.85;;;;;;;;;;5081408;28;20024;-91
2023/03/12 00:37:02;;;;;;;7.28;3.75;;;;;;;;;;5081375;28;20081;-93
2023/03/12 00:45:36;;;;;;;9.13;4.35;;;;;;;;;;5081012;28;20063;-93
2023/03/12 00:48:02;;;;;;;7.45;3.67;;;;;;;;;;5079621;28;20024;-94
2023/03/12 00:50:28;;;;;;;9.10;3.10;;;;;;;;;;5080714;28;20025;-93
2023/03/12 00:52:54;;;;;;;3.75;2.65;;;;;;;;;;5080679;28;20066;-93
2023/03/12 00:55:20;;;;;;;5.55;3.63;;;;;;;;;;5079742;28;20017;-92
2023/03/12 00:57:46;;;;;;;4.35;3.15;;;;;;;;;;5080527;28;20048;-93
2023/03/12 01:00:12;;;;;;;5.03;3.58;;;;;;;;;;5080834;28;20031;-92
2023/03/12 01:02:39;;;;;;;3.75;3.00;;;;;;;;;;5080897;28;20082;-92
2023/03/12 01:05:06;;;;;;;5.57;3.17;;;;;;;;;;5097406;28;20028;-93
2023/03/12 01:07:32;;;;;;;6.55;2.90;;;;;;;;;;5100568;28;20039;-93
2023/03/12 01:13:01;;;;;;;5.72;3.22;;;;;;;;;;5100312;28;20073;-92
2023/03/12 01:15:28;;;;;;;4.75;3.05;;;;;;;;;;5099734;28;20020;-93
2023/03/12 01:17:54;;;;;;;4.60;3.30;;;;;;;;;;5100198;28;20107;-92
2023/03/12 01:20:21;;;;;;;6.13;4.60;;;;;;;;;;5095041;28;20021;-93
2023/03/12 01:22:48;;;;;;;5.05;3.55;;;;;;;;;;5080075;28;20043;-93
2023/03/12 01:28:18;;;;;;;7.07;3.70;;;;;;;;;;5080149;28;20035;-93
2023/03/12 01:30:44;;;;;;;4.93;3.75;;;;;;;;;;5079951;28;20108;-94
2023/03/12 01:33:10;;;;;;;5.30;3.30;;;;;;;;;;5080427;28;20017;-93
2023/03/12 01:35:38;;;;;;;6.72;4.68;;;;;;;;;;5080176;28;20055;-94
2023/03/12 01:38:04;;;;;;;5.50;3.90;;;;;;;;;;5080004;28;20048;-95
2023/03/12 01:40:32;;;;;;;5.20;3.75;;;;;;;;;;5079881;28;20052;-94
2023/03/12 01:42:58;;;;;;;4.65;3.50;;;;;;;;;;5079772;28;20042;-94
2023/03/12 01:45:44;;;;;;;4.95;3.88;;;;;;;;;;5062516;28;20127;-94
2023/03/12 01:48:11;;;;;;;7.03;4.55;;;;;;;;;;5079870;28;20059;-94
2023/03/12 01:50:37;;;;;;;6.85;4.03;;;;;;;;;;5062008;28;20029;-94
2023/03/12 01:53:03;;;;;;;5.05;4.13;;;;;;;;;;5061993;28;20421;-94
2023/03/12 01:58:36;;;;;;;5.38;3.70;;;;;;;;;;5079646;28;20036;-92
2023/03/12 02:01:02;;;;;;;5.75;3.72;;;;;;;;;;5079939;28;20024;-93
2023/03/12 02:06:14;;;;;;;7.63;3.88;;;;;;;;;;5100641;28;20046;-92
2023/03/12 02:26:28;;;;;;;6.57;4.40;;;;;;;;;;5099790;28;20130;-92
2023/03/12 02:28:55;;;;;;;5.85;4.20;;;;;;;;;;5081454;28;20032;-93
2023/03/12 02:31:23;;;;;;;6.40;4.18;;;;;;;;;;5081121;28;20048;-93
2023/03/12 02:33:51;;;;;;;7.97;4.47;;;;;;;;;;5098909;28;20399;-93
2023/03/12 02:45:16;;;;;;;6.85;4.88;;;;;;;;;;5019722;28;20080;-92
2023/03/12 02:50:27;;;;;;;6.25;4.63;;;;;;;;;;4985567;28;20447;-92
2023/03/12 02:52:53;;;;;;;9.07;5.40;;;;;;;;;;4981966;28;20053;-93
2023/03/12 02:58:08;;;;;;;6.97;5.05;;;;;;;;;;5075060;23;20054;-92
2023/03/12 03:00:34;;;;;;;10.82;5.57;;;;;;;;;;5018438;28;20044;-92
2023/03/12 03:03:01;;;;;;;6.75;4.82;;;;;;;;;;5018615;28;20018;-93
2023/03/12 03:05:27;;;;;;;7.35;5.00;;;;;;;;;;5001118;28;20149;-91
2023/03/12 03:07:53;;;;;;;6.88;4.72;;;;;;;;;;5001213;28;20022;-92
2023/03/12 03:10:20;;;;;;;5.80;4.30;;;;;;;;;;5001234;28;20060;-92
2023/03/12 03:12:47;;;;;;;6.72;4.85;;;;;;;;;;5018447;28;20041;-92
2023/03/12 03:15:13;;;;;;;9.10;4.95;;;;;;;;;;5018529;28;20025;-93
2023/03/12 03:17:40;;;;;;;6.03;4.30;;;;;;;;;;5018285;28;20025;-93
2023/03/12 03:39:00;;;;;;;7.28;4.30;;;;;;;;;;4942548;29;20038;-93
2023/03/12 06:12:22;;;;;;;8.07;5.63;;;;;;;;;;5043699;23;20088;-91
2023/03/12 06:14:51;;;;;;;8.82;6.05;;;;;;;;;;4939717;29;20039;-91
2023/03/12 06:20:03;;;;;;;8.82;5.97;;;;;;;;;;4928841;29;20090;-91
2023/03/12 06:25:14;;;;;;;11.40;7.13;;;;;;;;;;4933571;29;20035;-91
2023/03/12 06:30:44;;;;;;;12.65;7.43;;;;;;;;;;4936984;29;20501;-92
2023/03/12 06:33:10;;;;;;;10.35;6.75;;;;;;;;;;4923995;29;20036;-92
2023/03/12 06:35:38;;;;;;;10.50;7.00;;;;;;;;;;4905932;29;20028;-91
2023/03/12 06:38:04;;;;;;;11.77;7.40;;;;;;;;;;4921567;29;20433;-92
2023/03/12 06:43:35;;;;;;;12.88;7.50;;;;;;;;;;4941408;29;20043;-93
2023/03/12 06:46:01;;;;;;;10.93;7.80;;;;;;;;;;4922994;29;20036;-92
2023/03/12 06:48:28;;;;;;;10.73;7.57;;;;;;;;;;4905606;29;20040;-93
2023/03/12 06:50:55;;;;;;;13.13;7.97;;;;;;;;;;4935482;29;20035;-92
2023/03/12 06:53:21;;;;;;;10.25;7.43;;;;;;;;;;4933333;29;20403;-92
2023/03/12 07:52:03;;;;;;;12.25;7.40;;;;;;;;;;4961749;23;20359;-95
2023/03/12 07:54:29;;;;;;;14.90;7.90;;;;;;;;;;4923423;29;20087;-95
2023/03/12 07:56:56;;;;;;;10.93;7.53;;;;;;;;;;4922931;29;20426;-96
2023/03/12 07:59:22;;;;;;;9.98;6.90;;;;;;;;;;4923543;29;20051;-94
2023/03/12 08:01:49;;;;;;;11.18;7.10;;;;;;;;;;4921552;29;20036;-94
2023/03/12 08:04:15;;;;;;;10.65;7.65;;;;;;;;;;4934655;29;20028;-95
2023/03/12 08:06:44;;;;;;;11.25;6.75;;;;;;;;;;4923305;29;20405;-95
2023/03/12 08:09:10;;;;;;;14.35;7.65;;;;;;;;;;4921878;29;20116;-94
2023/03/12 08:11:36;;;;;;;12.40;7.40;;;;;;;;;;4920975;29;20028;-94
2023/03/12 08:14:03;;;;;;;9.32;7.07;;;;;;;;;;4931596;29;20005;-95
2023/03/12 08:16:29;;;;;;;10.90;7.57;;;;;;;;;;4924076;29;20087;-95
2023/03/12 08:18:55;;;;;;;8.38;6.60;;;;;;;;;;4940513;29;20032;-95
2023/03/12 08:21:21;;;;;;;10.57;6.50;;;;;;;;;;4940180;29;20065;-96
2023/03/12 08:23:47;;;;;;;10.05;6.70;;;;;;;;;;4943857;29;20035;-95
2023/03/12 08:26:13;;;;;;;10.13;6.60;;;;;;;;;;4944639;29;20028;-95
2023/03/12 08:28:39;;;;;;;9.55;6.68;;;;;;;;;;4944714;29;20032;-96
2023/03/12 08:31:08;;;;;;;9.93;7.25;;;;;;;;;;4947683;29;20027;-87
2023/03/12 08:33:34;;;;;;;10.57;7.20;;;;;;;;;;4949554;29;20027;-93
2023/03/12 08:36:00;;;;;;;9.23;6.82;;;;;;;;;;4943454;29;20032;-87
2023/03/12 08:38:27;;;;;;;11.65;7.45;;;;;;;;;;4944001;29;20023;-87
2023/03/12 08:43:56;;;;;;;10.18;7.15;;;;;;;;;;4925565;29;20088;-87
2023/03/12 08:46:22;;;;;;;8.43;5.90;;;;;;;;;;4919732;29;20036;-87
2023/03/12 08:48:48;;;;;;;8.68;6.28;;;;;;;;;;4923385;29;20068;-87
2023/03/12 08:51:15;;;;;;;8.32;6.35;;;;;;;;;;4924215;29;20054;-88
2023/03/12 08:53:42;;;;;;;11.80;6.20;;;;;;;;;;4924352;29;20334;-88
2023/03/12 08:59:11;;;;;;;8.60;5.93;;;;;;;;;;4924523;29;20151;-89
2023/03/12 09:01:38;;;;;;;9.35;5.25;;;;;;;;;;4924328;29;20315;-88
2023/03/12 09:04:04;;;;;;;7.78;5.38;;;;;;;;;;4922439;29;20060;-88
2023/03/12 09:06:30;;;;;;;7.10;5.72;;;;;;;;;;4924115;29;20035;-88
2023/03/12 09:08:56;;;;;;;8.30;5.22;;;;;;;;;;4924469;29;20028;-88
2023/03/12 09:11:22;;;;;;;9.15;5.72;;;;;;;;;;4923165;29;20300;-89
2023/03/12 09:13:48;;;;;;;10.10;5.85;;;;;;;;;;4923146;29;20028;-88
2023/03/12 09:16:14;;;;;;;7.13;5.70;;;;;;;;;;4922526;29;20028;-88
2023/03/12 09:18:40;;;;;;;8.88;5.20;;;;;;;;;;4922999;29;20118;-87
2023/03/12 09:21:06;;;;;;;8.15;5.72;;;;;;;;;;4923920;29;20032;-88
2023/03/12 09:23:32;;;;;;;8.40;6.40;;;;;;;;;;4924217;29;20474;-87
2023/03/12 09:25:58;;;;;;;8.45;5.93;;;;;;;;;;4922990;29;20442;-87
2023/03/12 09:28:25;;;;;;;8.73;6.07;;;;;;;;;;4923797;29;20315;-87
2023/03/12 09:30:51;;;;;;;14.45;8.70;;;;;;;;;;4924226;29;20098;-88
2023/03/12 09:33:17;;;;;;;9.10;6.43;;;;;;;;;;4922245;29;20020;-88
2023/03/12 09:35:43;;;;;;;8.27;6.05;;;;;;;;;;4925850;29;20051;-95
2023/03/12 09:38:13;;;;;;;8.35;6.07;;;;;;;;;;4926611;29;20027;-94
2023/03/12 09:40:40;;;;;;;10.30;6.35;;;;;;;;;;4926020;29;20470;-96
2023/03/12 09:46:12;;;;;;;13.13;7.70;;;;;;;;;;4904979;29;20088;-96
2023/03/12 09:48:38;;;;;;;12.20;6.97;;;;;;;;;;4904580;29;20020;-96
2023/03/12 09:51:27;;;;;;;7.35;4.97;;;;;;;;;;4903413;29;20079;-95
2023/03/12 09:53:55;;;;;;;12.25;7.13;;;;;;;;;;4869258;29;20045;-96
2023/03/12 09:56:22;;;;;;;11.63;7.28;;;;;;;;;;4884599;29;20136;-95
2023/03/12 09:58:50;;;;;;;24.02;11.65;;;;;;;;;;4869345;29;20037;-96
2023/03/12 10:01:16;;;;;;;15.95;8.48;;;;;;;;;;4869204;29;20036;-96
2023/03/12 10:04:02;;;;;;;13.65;7.35;;;;;;;;;;4884311;29;20037;-95
2023/03/12 10:06:53;;;;;;;12.40;8.10;;;;;;;;;;4850687;29;20133;-96
2023/03/12 10:09:21;;;;;;;9.90;6.10;;;;;;;;;;4861302;29;20102;-96
2023/03/12 10:11:57;;;;;;;6.68;5.35;;;;;;;;;;4848755;29;20112;-93
2023/03/12 10:14:32;;;;;;;7.90;5.60;;;;;;;;;;4855458;29;20117;-96
2023/03/12 10:16:58;;;;;;;6.47;5.20;;;;;;;;;;4864702;29;20038;-92
2023/03/12 10:19:32;;;;;;;7.75;5.22;;;;;;;;;;4865351;29;20347;-93
2023/03/12 10:22:07;;;;;;;8.57;6.03;;;;;;;;;;4865006;29;20413;-92
2023/03/12 10:24:33;;;;;;;9.13;6.47;;;;;;;;;;4865110;29;20073;-88
2023/03/12 10:30:23;;;;;;;9.70;6.15;;;;;;;;;;4853296;29;20099;-95
2023/03/12 10:32:51;;;;;;;9.65;6.75;;;;;;;;;;4861529;29;20131;-92
2023/03/12 10:35:19;;;;;;;10.52;6.00;;;;;;;;;;4865034;29;20029;-96
2023/03/12 10:37:50;;;;;;;10.05;6.55;;;;;;;;;;4864641;29;20042;-92
2023/03/12 10:40:21;;;;;;;14.07;8.80;;;;;;;;;;4864741;29;20041;-94
2023/03/12 10:43:24;;;;;;;10.43;7.00;;;;;;;;;;4861122;29;20042;-93
2023/03/12 10:45:50;;;;;;;;;;;;;;;;;;4869083;29;20379;-94
2023/03/12 10:48:23;;;;;;;9.90;6.75;;;;;;;;;;4920339;29;19915;-93
2023/03/12 10:51:02;;;;;;;11.25;7.63;;;;;;;;;;4921144;29;20376;-91
2023/03/12 10:53:30;;;;;;;8.57;6.20;;;;;;;;;;4921368;29;20487;-94
2023/03/12 10:56:08;;;;;;;8.93;6.45;;;;;;;;;;4920147;29;20042;-91
2023/03/12 10:58:36;;;;;;;8.45;5.65;;;;;;;;;;4917766;29;20023;-93
2023/03/12 11:01:03;;;;;;;12.50;5.90;;;;;;;;;;4955999;29;20057;-92
2023/03/12 11:03:30;;;;;;;7.82;6.10;;;;;;;;;;4918240;29;20463;-92
2023/03/12 11:05:59;;;;;;;6.63;5.57;;;;;;;;;;4918514;29;20032;-94
2023/03/12 11:08:27;;;;;;;6.88;5.68;;;;;;;;;;4904764;29;20048;-92
2023/03/12 11:10:54;;;;;;;9.52;6.07;;;;;;;;;;4921057;29;20025;-92
2023/03/12 11:13:27;;;;;;;9.70;6.85;;;;;;;;;;4916502;29;20032;-93
2023/03/12 11:15:54;;;;;;;20.65;11.63;;;;;;;;;;4917233;29;20020;-93
2023/03/12 11:18:28;;;;;;;12.23;8.15;;;;;;;;;;4915036;29;20059;-92
2023/03/12 11:21:11;;;;;;;23.88;14.18;;;;;;;;;;4917016;29;20330;-93
2023/03/12 11:23:38;;;;;;;9.80;7.38;;;;;;;;;;4916915;29;20028;-91
2023/03/12 11:26:11;;;;;;;9.18;6.60;;;;;;;;;;4921450;29;20028;-93
2023/03/12 11:31:42;;;;;;;17.23;8.48;;;;;;;;;;4922194;29;20031;-94
2023/03/12 11:34:16;;;;;;;7.88;6.10;;;;;;;;;;4920660;29;20059;-94
2023/03/12 11:36:49;;;;;;;7.85;5.60;;;;;;;;;;4920009;29;20192;-94
2023/03/12 11:39:33;;;;;;;8.02;5.28;;;;;;;;;;4920472;29;20482;-93
2023/03/12 11:48:17;;;;;;;11.90;7.47;;;;;;;;;;4915966;29;20323;-94
2023/03/12 11:51:05;;;;;;;10.13;6.82;;;;;;;;;;4921670;29;20052;-93
2023/03/12 11:53:47;;;;;;;9.60;6.60;;;;;;;;;;4920514;29;20032;-79
2023/03/12 11:56:18;;;;;;;51.70;27.08;;;;;;;;;;4919736;29;20031;-93
2023/03/12 11:58:49;;;;;;;47.75;23.48;;;;;;;;;;4920265;29;20449;-89
2023/03/12 12:01:24;;;;;;;57.13;29.20;;;;;;;;;;4919817;29;20036;-91
2023/03/12 12:03:56;;;;;;;35.72;18.15;;;;;;;;;;4921551;29;20132;-89
2023/03/12 12:06:22;;;;;;;10.50;7.10;;;;;;;;;;4920552;29;20028;-88
2023/03/12 12:09:04;;;;;;;10.95;6.80;;;;;;;;;;4921320;29;20040;-88
2023/03/12 12:11:50;;;;;;;7.37;5.30;;;;;;;;;;4921258;29;20092;-88
2023/03/12 12:14:23;;;;;;;9.85;6.55;;;;;;;;;;4919784;29;20269;-89
2023/03/12 12:16:52;;;;;;;9.00;6.35;;;;;;;;;;4924690;29;20029;-88
2023/03/12 12:19:24;;;;;;;11.57;7.47;;;;;;;;;;4940024;29;20519;-88
2023/03/12 12:22:08;;;;;;;9.52;6.35;;;;;;;;;;4954877;29;20116;-89
2023/03/12 12:24:37;;;;;;;10.02;7.30;;;;;;;;;;4955022;29;20043;-90
2023/03/12 12:27:20;;;;;;;11.60;8.43;;;;;;;;;;4919405;29;20032;-89
2023/03/12 12:30:18;;;;;;;8.50;6.40;;;;;;;;;;4921143;29;20056;-90
2023/03/12 12:32:44;;;;;;;9.73;6.63;;;;;;;;;;4841514;29;20036;-88
2023/03/12 12:35:16;;;;;;;9.93;6.85;;;;;;;;;;4856784;29;20070;-89
2023/03/12 12:37:42;;;;;;;8.90;6.68;;;;;;;;;;4868224;29;20064;-90
2023/03/12 12:40:20;;;;;;;14.73;8.18;;;;;;;;;;4862705;29;20065;-88
2023/03/12 12:43:10;;;;;;;9.50;7.15;;;;;;;;;;4860539;29;20460;-89
2023/03/12 12:45:38;;;;;;;9.00;7.00;;;;;;;;;;4865082;29;20045;-92
2023/03/12 12:48:08;;;;;;;7.53;5.53;;;;;;;;;;4859085;29;20073;-91
2023/03/12 12:50:36;;;;;;;11.10;6.20;;;;;;;;;;4847238;29;20068;-91
2023/03/12 12:53:10;;;;;;;8.43;5.88;;;;;;;;;;4838293;29;20029;-91
2023/03/12 12:55:56;;;;;;;18.10;8.93;;;;;;;;;;4862305;29;20115;-89
2023/03/12 12:58:41;;;;;;;14.75;7.50;;;;;;;;;;4843364;29;20034;-92
2023/03/12 13:01:08;;;;;;;11.43;7.80;;;;;;;;;;4844706;29;20042;-91
2023/03/12 13:03:34;;;;;;;11.55;7.53;;;;;;;;;;4852260;29;20049;-91
2023/03/12 13:06:01;;;;;;;10.52;6.15;;;;;;;;;;4863148;29;20147;-92
2023/03/12 13:08:36;;;;;;;7.80;5.57;;;;;;;;;;4874682;29;20120;-91
2023/03/12 13:11:04;;;;;;;8.10;5.78;;;;;;;;;;4886122;29;20025;-92
2023/03/12 13:13:31;;;;;;;10.82;6.75;;;;;;;;;;4883783;29;20037;-90
2023/03/12 13:16:17;;;;;;;10.18;7.30;;;;;;;;;;4855665;29;20030;-93
2023/03/12 13:18:55;;;;;;;9.20;6.78;;;;;;;;;;4850950;29;20043;-95
2023/03/12 13:21:28;;;;;;;7.97;6.13;;;;;;;;;;4850800;29;20038;-94
2023/03/12 13:24:13;;;;;;;10.38;6.32;;;;;;;;;;4866730;29;20040;-93
2023/03/12 13:26:50;;;;;;;10.73;6.65;;;;;;;;;;4850465;29;20052;-95
2023/03/12 13:29:43;;;;;;;8.77;6.28;;;;;;;;;;4865925;29;20041;-94
2023/03/12 13:32:28;;;;;;;9.93;6.78;;;;;;;;;;4864118;29;20045;-94
2023/03/12 13:34:58;;;;;;;11.48;7.38;;;;;;;;;;4877265;29;20156;-95
2023/03/12 13:37:29;;;;;;;10.90;6.95;;;;;;;;;;4914676;29;20027;-93
2023/03/12 13:39:59;;;;;;;9.57;6.70;;;;;;;;;;4943042;29;20027;-93
2023/03/12 13:46:09;;;;;;;9.82;7.25;;;;;;;;;;4922856;29;20071;-93
2023/03/12 13:48:36;;;;;;;10.00;7.05;;;;;;;;;;4813666;29;20034;-95
2023/03/12 13:51:10;;;;;;;8.48;5.88;;;;;;;;;;4813316;29;20467;-94
2023/03/12 13:53:38;;;;;;;11.55;7.30;;;;;;;;;;4813590;29;20351;-95
2023/03/12 13:56:10;;;;;;;8.40;7.10;;;;;;;;;;4813724;29;20307;-95
2023/03/12 13:58:56;;;;;;;11.55;7.32;;;;;;;;;;4899314;23;20378;-94
2023/03/12 14:01:26;;;;;;;12.50;9.13;;;;;;;;;;4927223;29;20036;-92
2023/03/12 14:03:57;;;;;;;11.43;8.70;;;;;;;;;;4921668;29;20330;-92
2023/03/12 14:06:24;;;;;;;8.68;6.65;;;;;;;;;;4923573;29;20034;-93
2023/03/12 14:08:50;;;;;;;10.77;8.10;;;;;;;;;;4922326;29;20060;-91
2023/03/12 14:11:22;;;;;;;9.85;7.07;;;;;;;;;;4936789;29;20079;-89
2023/03/12 14:16:55;;;;;;;12.27;8.20;;;;;;;;;;4923144;29;20035;-93
2023/03/12 14:19:25;;;;;;;8.68;6.63;;;;;;;;;;4937049;29;20030;-92
2023/03/12 14:21:52;;;;;;;7.70;6.22;;;;;;;;;;4941808;29;20419;-92
2023/03/12 14:24:18;;;;;;;8.23;6.13;;;;;;;;;;4941809;29;20031;-94
2023/03/12 14:26:45;;;;;;;10.55;7.50;;;;;;;;;;4925978;29;20030;-92
2023/03/12 14:29:24;;;;;;;10.88;7.50;;;;;;;;;;4922840;29;20056;-93
2023/03/12 14:31:51;;;;;;;9.15;6.93;;;;;;;;;;4923459;29;20047;-90
2023/03/12 14:34:20;;;;;;;10.43;7.22;;;;;;;;;;4923179;29;20050;-90
2023/03/12 14:37:10;;;;;;;9.25;6.75;;;;;;;;;;4940650;29;20028;-90
2023/03/12 14:39:41;;;;;;;11.80;8.32;;;;;;;;;;4940048;29;20079;-90
2023/03/12 14:42:08;;;;;;;12.32;8.27;;;;;;;;;;4939898;29;20036;-90
2023/03/12 14:44:35;;;;;;;9.27;6.80;;;;;;;;;;4939185;29;20042;-91
2023/03/12 14:47:05;;;;;;;7.72;6.28;;;;;;;;;;4925199;29;20062;-88
2023/03/12 14:49:39;;;;;;;17.65;10.75;;;;;;;;;;4921208;29;20039;-92
2023/03/12 14:52:05;;;;;;;9.05;7.32;;;;;;;;;;4914355;29;20025;-89
2023/03/12 14:54:31;;;;;;;10.25;7.20;;;;;;;;;;4922123;29;20051;-88
2023/03/12 14:56:57;;;;;;;10.50;7.03;;;;;;;;;;4906999;29;20028;-91
2023/03/12 14:59:23;;;;;;;8.40;6.63;;;;;;;;;;4907410;29;20048;-92
2023/03/12 15:01:50;;;;;;;7.97;5.50;;;;;;;;;;4913095;29;20040;-91
2023/03/12 15:04:17;;;;;;;10.05;5.75;;;;;;;;;;4914958;29;20059;-87
2023/03/12 15:06:51;;;;;;;8.20;6.75;;;;;;;;;;4902090;29;20083;-91
2023/03/12 15:09:23;;;;;;;8.52;6.25;;;;;;;;;;4903193;29;20148;-90
2023/03/12 15:12:08;;;;;;;8.95;6.80;;;;;;;;;;4903292;29;20412;-90
2023/03/12 15:14:38;;;;;;;11.32;7.72;;;;;;;;;;4902041;29;20418;-91
2023/03/12 15:17:05;;;;;;;9.73;6.88;;;;;;;;;;4902102;29;20025;-90
2023/03/12 15:19:33;;;;;;;10.35;7.07;;;;;;;;;;4902042;29;20425;-92
2023/03/12 15:21:59;;;;;;;14.50;9.48;;;;;;;;;;4903028;29;20171;-90
2023/03/12 15:24:28;;;;;;;15.07;9.50;;;;;;;;;;4902542;29;20036;-90
2023/03/12 15:26:56;;;;;;;26.17;13.43;;;;;;;;;;4901941;29;20044;-92
2023/03/12 15:29:27;;;;;;;22.23;11.80;;;;;;;;;;4901510;29;20195;-90
2023/03/12 15:31:54;;;;;;;20.25;11.98;;;;;;;;;;4900911;29;20025;-92
2023/03/12 15:34:35;;;;;;;16.48;10.18;;;;;;;;;;4909692;29;20051;-89
2023/03/12 15:37:02;;;;;;;15.48;9.63;;;;;;;;;;4922486;29;20047;-90
2023/03/12 15:39:32;;;;;;;14.68;9.68;;;;;;;;;;4926977;29;20319;-91
2023/03/12 15:42:02;;;;;;;12.88;8.68;;;;;;;;;;4915759;29;20023;-90
2023/03/12 15:44:47;;;;;;;11.23;8.35;;;;;;;;;;4920515;29;20028;-90
2023/03/12 15:47:18;;;;;;;14.23;8.77;;;;;;;;;;4911008;29;20056;-91
2023/03/12 15:49:48;;;;;;;9.02;6.80;;;;;;;;;;4925321;29;20038;-91
2023/03/12 15:52:17;;;;;;;8.95;6.65;;;;;;;;;;4907919;29;20032;-90
2023/03/12 15:54:58;;;;;;;9.18;6.45;;;;;;;;;;4901191;29;20047;-91
2023/03/12 15:57:29;;;;;;;10.63;7.63;;;;;;;;;;4902519;29;20029;-91
2023/03/12 16:03:02;;;;;;;11.85;7.50;;;;;;;;;;4909163;29;20112;-90
2023/03/12 16:05:35;;;;;;;9.90;7.45;;;;;;;;;;4906014;29;20037;-90
2023/03/12 16:08:10;;;;;;;11.40;7.30;;;;;;;;;;4901562;29;20068;-93
2023/03/12 16:10:37;;;;;;;12.18;7.38;;;;;;;;;;4905508;29;20092;-91
2023/03/12 16:16:10;;;;;;;27.60;15.75;;;;;;;;;;4911727;29;20359;-92
2023/03/12 16:18:38;;;;;;;20.75;12.05;;;;;;;;;;4921301;29;20323;-91
2023/03/12 16:21:07;;;;;;;47.65;25.15;;;;;;;;;;4921515;29;20315;-91
2023/03/12 16:23:33;;;;;;;101.22;49.85;;;;;;;;;;4920208;29;20075;-91
2023/03/12 16:26:05;;;;;;;34.17;20.42;;;;;;;;;;4919354;29;20038;-92
2023/03/12 16:28:35;;;;;;;25.70;16.48;;;;;;;;;;4910118;29;20028;-93
2023/03/12 16:31:12;;;;;;;22.52;15.02;;;;;;;;;;4902501;29;20447;-92
2023/03/12 16:33:46;;;;;;;24.10;15.30;;;;;;;;;;4919088;29;20361;-94
2023/03/12 16:36:15;;;;;;;23.90;16.63;;;;;;;;;;4921020;29;20024;-92
2023/03/12 16:38:44;;;;;;;17.42;12.00;;;;;;;;;;4919905;29;20031;-92
2023/03/12 16:41:13;;;;;;;19.15;13.43;;;;;;;;;;4920961;29;20411;-93
2023/03/12 16:46:46;;;;;;;37.60;25.95;;;;;;;;;;4914000;29;20100;-91
2023/03/12 16:49:18;;;;;;;32.88;21.00;;;;;;;;;;4906386;29;20038;-91
2023/03/12 16:51:44;;;;;;;;;;;;;;;;;;4904595;29;20040;-90
2023/03/12 16:54:10;;;;;;;43.30;26.60;;;;;;;;;;4919087;29;19943;-92
2023/03/12 16:56:51;;;;;;;59.13;32.42;;;;;;;;;;4924089;29;20072;-91
2023/03/12 17:02:21;;;;;;;105.38;46.17;;;;;;;;;;4913442;29;20098;-92
2023/03/12 17:04:51;;;;;;;100.22;43.60;;;;;;;;;;4937983;29;20043;-92
2023/03/12 17:07:18;;;;;;;111.82;45.53;;;;;;;;;;4922474;29;20028;-91
2023/03/12 17:09:48;;;;;;;96.43;43.53;;;;;;;;;;4915098;29;20040;-93
2023/03/12 17:12:32;;;;;;;106.85;44.17;;;;;;;;;;4923904;29;20052;-92
2023/03/12 17:18:03;;;;;;;169.50;70.25;;;;;;;;;;4924352;29;20066;-93
2023/03/12 17:20:34;;;;;;;249.30;117.20;;;;;;;;;;4924089;29;20363;-92
2023/03/12 17:23:01;;;;;;;229.15;112.72;;;;;;;;;;4903814;29;20037;-92
2023/03/12 17:25:32;;;;;;;164.27;81.88;;;;;;;;;;4922351;29;20318;-93
2023/03/12 17:27:58;;;;;;;116.60;57.00;;;;;;;;;;4920640;29;20033;-90
2023/03/12 17:30:31;;;;;;;114.80;54.00;;;;;;;;;;4906582;29;20064;-91
2023/03/12 17:32:57;;;;;;;;;;;;;;;;;;4924381;29;20027;-93
2023/03/12 17:35:25;;;;;;;131.10;65.32;;;;;;;;;;4922636;29;19910;-92
2023/03/12 17:37:51;;;;;;;142.05;68.30;;;;;;;;;;4923487;29;20023;-92
2023/03/12 17:40:17;;;;;;;145.80;76.07;;;;;;;;;;4916176;29;20309;-85
2023/03/12 17:42:46;;;;;;;132.20;70.78;;;;;;;;;;4905214;29;20036;-86
2023/03/12 17:45:17;;;;;;;126.28;67.85;;;;;;;;;;4904451;29;20031;-95
2023/03/12 17:47:46;;;;;;;127.50;67.75;;;;;;;;;;4907409;29;20068;-84
2023/03/12 17:50:12;;;;;;;168.15;86.22;;;;;;;;;;4907515;29;20030;-83
2023/03/12 17:52:38;;;;;;;164.43;89.47;;;;;;;;;;4909555;29;20033;-90
2023/03/12 17:55:07;;;;;;;233.48;114.00;;;;;;;;;;4923356;29;20035;-89
2023/03/12 17:57:33;;;;;;;315.42;141.98;;;;;;;;;;4908950;29;20039;-90
2023/03/12 18:03:03;;;;;;;392.08;172.63;;;;;;;;;;4904557;29;20068;-89
2023/03/12 18:05:34;;;;;;;328.90;145.85;;;;;;;;;;4906329;29;20028;-90
2023/03/12 18:08:00;;;;;;;237.98;112.30;;;;;;;;;;4921824;29;20039;-89
2023/03/12 18:10:30;;;;;;;229.32;115.00;;;;;;;;;;4922838;29;20047;-89
2023/03/12 18:13:02;;;;;;;223.88;112.72;;;;;;;;;;4921390;29;20028;-89
2023/03/12 18:18:31;;;;;;;232.40;111.53;;;;;;;;;;4923038;29;20079;-91
2023/03/12 18:20:57;;;;;;;243.80;116.18;;;;;;;;;;4922204;29;20032;-91
2023/03/12 18:23:26;;;;;;;236.82;113.97;;;;;;;;;;4920889;29;20055;-89
2023/03/12 18:25:55;;;;;;;260.60;126.65;;;;;;;;;;4921892;29;20567;-91
2023/03/12 18:28:24;;;;;;;284.70;143.50;;;;;;;;;;4921751;29;20028;-90
2023/03/12 18:30:50;;;;;;;284.92;147.48;;;;;;;;;;4922392;29;20039;-91
2023/03/12 18:33:16;;;;;;;281.48;139.80;;;;;;;;;;4921995;29;20035;-89
2023/03/12 18:35:45;;;;;;;371.70;162.55;;;;;;;;;;4906060;29;20069;-90
2023/03/12 18:38:11;;;;;;;414.58;190.50;;;;;;;;;;4909093;29;20407;-90
2023/03/12 18:40:37;;;;;;;368.63;178.35;;;;;;;;;;4922592;29;20054;-92
2023/03/12 18:43:03;;;;;;;335.95;165.70;;;;;;;;;;4922025;29;20467;-90
2023/03/12 18:45:30;;;;;;;309.88;146.65;;;;;;;;;;4922708;29;20040;-90
2023/03/12 18:47:59;;;;;;;357.40;160.38;;;;;;;;;;4918900;29;20032;-89
2023/03/12 18:50:28;;;;;;;325.85;154.65;;;;;;;;;;4904479;29;20124;-89
2023/03/12 18:52:57;;;;;;;288.70;140.15;;;;;;;;;;4911918;29;20103;-90
2023/03/12 18:55:29;;;;;;;270.95;125.80;;;;;;;;;;4921350;29;20035;-89
2023/03/12 18:57:57;;;;;;;166.05;84.30;;;;;;;;;;4913805;29;20065;-89
2023/03/12 19:01:01;;;;;;;126.60;69.85;;;;;;;;;;4916427;29;20498;-89
2023/03/12 19:03:34;;;;;;;91.72;49.30;;;;;;;;;;4921496;29;20035;-89
2023/03/12 19:06:10;;;;;;;114.60;51.40;;;;;;;;;;4920509;29;20024;-89
2023/03/12 19:08:42;;;;;;;123.63;51.30;;;;;;;;;;4917186;29;20040;-89
2023/03/12 19:11:08;;;;;;;;;;;;;;;;;;4902703;29;20056;-90
2023/03/12 19:14:08;;;;;;;121.75;55.88;;;;;;;;;;4911419;29;19915;-90
2023/03/12 19:16:36;;;;;;;58.25;38.63;;;;;;;;;;4914292;29;20039;-90
2023/03/12 19:19:05;;;;;;;54.17;35.85;;;;;;;;;;4911041;29;20040;-90
2023/03/12 19:21:31;;;;;;;84.97;47.13;;;;;;;;;;4903212;29;20059;-90
2023/03/12 19:24:00;;;;;;;73.85;41.47;;;;;;;;;;4902925;29;20352;-91
2023/03/12 19:26:33;;;;;;;76.55;39.92;;;;;;;;;;4901671;29;20048;-89
2023/03/12 19:29:08;;;;;;;87.78;43.83;;;;;;;;;;4901698;29;20031;-90
2023/03/12 19:31:38;;;;;;;137.07;60.63;;;;;;;;;;4902713;29;20084;-90
2023/03/12 19:34:04;;;;;;;100.88;50.78;;;;;;;;;;4902971;29;20029;-89
2023/03/12 19:36:33;;;;;;;93.85;51.22;;;;;;;;;;4901788;29;20035;-90
2023/03/12 19:39:02;;;;;;;100.68;54.13;;;;;;;;;;4908278;29;20024;-83
2023/03/12 19:41:33;;;;;;;117.30;58.58;;;;;;;;;;4921538;29;20032;-90
2023/03/12 19:44:01;;;;;;;169.10;71.55;;;;;;;;;;4909471;29;20048;-83
2023/03/12 19:46:30;;;;;;;176.15;77.30;;;;;;;;;;4912689;29;20035;-90
2023/03/12 19:48:59;;;;;;;188.05;93.13;;;;;;;;;;4921379;29;20103;-89
2023/03/12 19:51:25;;;;;;;242.32;110.45;;;;;;;;;;4918948;29;20062;-90
2023/03/12 19:54:00;;;;;;;205.48;86.43;;;;;;;;;;4919962;29;20051;-90
2023/03/12 19:56:29;;;;;;;147.55;71.65;;;;;;;;;;4921432;29;20111;-89
2023/03/12 19:58:58;;;;;;;152.68;74.18;;;;;;;;;;4920998;29;20052;-90
2023/03/12 20:01:24;;;;;;;157.02;76.72;;;;;;;;;;4921299;29;20032;-90
2023/03/12 20:03:55;;;;;;;155.23;80.45;;;;;;;;;;4919881;29;20111;-90
2023/03/12 20:06:24;;;;;;;170.88;80.78;;;;;;;;;;4920835;29;20024;-90
2023/03/12 20:08:53;;;;;;;150.25;75.75;;;;;;;;;;4921111;29;20028;-89
2023/03/12 20:11:19;;;;;;;146.15;73.30;;;;;;;;;;4921245;29;20080;-90
2023/03/12 20:16:48;;;;;;;119.07;63.92;;;;;;;;;;4921729;29;20446;-90
2023/03/12 20:19:14;;;;;;;132.98;70.22;;;;;;;;;;4924330;29;20043;-90
2023/03/12 20:21:42;;;;;;;144.88;80.25;;;;;;;;;;4925026;29;20028;-89
2023/03/12 20:24:09;;;;;;;143.32;75.65;;;;;;;;;;4924660;29;20076;-89
2023/03/12 20:26:38;;;;;;;141.38;77.57;;;;;;;;;;4925378;29;20038;-90
2023/03/12 20:29:04;;;;;;;145.13;79.00;;;;;;;;;;4925062;29;20037;-89